createdAt,value
2023-02-19T05:46:08.792Z,47.32
2023-02-19T05:47:10.633Z,47.33
2023-02-19T05:48:12.448Z,47.34
2023-02-19T05:49:14.267Z,47.36
2023-02-19T05:50:16.582Z,47.40
2023-02-19T05:51:18.413Z,47.38
2023-02-19T05:52:20.421Z,47.33
2023-02-19T05:53:22.192Z,47.28
2023-02-19T05:54:23.991Z,47.28
2023-02-19T05:55:25.803Z,47.27
2023-02-19T05:56:27.661Z,47.29
2023-02-19T05:57:29.471Z,47.34
2023-02-19T05:58:31.290Z,47.39
2023-02-19T05:59:33.113Z,47.40
2023-02-19T06:00:35.135Z,47.40
2023-02-19T06:01:36.951Z,47.39
2023-02-19T06:02:39.915Z,47.42
2023-02-19T06:03:41.729Z,47.48
2023-02-19T06:04:43.519Z,47.53
2023-02-19T06:05:45.320Z,47.53
2023-02-19T06:06:47.116Z,47.52
2023-02-19T06:07:50.747Z,47.48
2023-02-19T06:08:52.609Z,47.48
2023-02-19T06:09:54.432Z,47.46
2023-02-19T06:10:56.437Z,47.38
2023-02-19T06:11:58.349Z,47.24
2023-02-19T06:13:00.296Z,47.14
2023-02-19T06:14:02.097Z,47.16
2023-02-19T06:15:03.905Z,47.21
2023-02-19T06:16:05.885Z,47.26
2023-02-19T06:17:07.769Z,47.28
2023-02-19T06:18:09.626Z,47.28
2023-02-19T06:19:11.424Z,47.27
2023-02-19T06:20:13.458Z,47.22
2023-02-19T06:21:15.244Z,47.17
2023-02-19T06:22:17.041Z,47.10
2023-02-19T06:23:18.895Z,47.06
2023-02-19T06:24:20.729Z,47.14
2023-02-19T06:25:22.527Z,47.14
2023-02-19T06:26:24.326Z,47.10
2023-02-19T06:27:26.252Z,47.14
2023-02-19T06:28:28.140Z,47.21
2023-02-19T06:29:30.028Z,47.23
2023-02-19T06:30:32.288Z,47.15
2023-02-19T06:31:34.261Z,47.12
2023-02-19T06:32:36.115Z,47.19
2023-02-19T06:33:37.945Z,47.22
2023-02-19T06:34:39.856Z,47.20
2023-02-19T06:35:41.656Z,47.21
2023-02-19T06:36:43.468Z,47.26
2023-02-19T06:37:45.269Z,47.23
2023-02-19T06:38:47.228Z,47.29
2023-02-19T06:39:49.099Z,47.37
2023-02-19T06:40:50.914Z,47.37
2023-02-19T06:41:52.935Z,47.46
2023-02-19T06:42:54.741Z,47.37
2023-02-19T06:43:56.581Z,47.37
2023-02-19T06:44:58.397Z,47.35
2023-02-19T06:46:00.212Z,47.35
2023-02-19T06:47:02.038Z,47.40
2023-02-19T06:48:03.870Z,47.25
2023-02-19T06:49:05.781Z,47.28
2023-02-19T06:50:07.826Z,47.33
2023-02-19T06:51:09.982Z,47.29
2023-02-19T06:52:11.957Z,47.13
2023-02-19T06:53:13.774Z,47.18
2023-02-19T06:54:15.624Z,47.23
2023-02-19T06:55:17.459Z,47.29
2023-02-19T06:56:19.582Z,47.24
2023-02-19T06:57:21.378Z,47.18
2023-02-19T06:58:23.900Z,47.27
2023-02-19T06:59:25.751Z,47.26
2023-02-19T07:00:27.551Z,47.32
2023-02-19T07:01:29.350Z,47.25
2023-02-19T07:02:31.173Z,47.18
2023-02-19T07:03:32.962Z,47.04
2023-02-19T07:04:34.819Z,46.98
2023-02-19T07:05:36.661Z,47.05
2023-02-19T07:06:38.547Z,47.25
2023-02-19T07:07:40.345Z,47.38
2023-02-19T07:08:42.148Z,47.46
2023-02-19T07:09:44.001Z,47.44
2023-02-19T07:10:45.806Z,47.48
2023-02-19T07:11:47.604Z,47.53
2023-02-19T07:12:49.415Z,47.54
2023-02-19T07:13:51.199Z,47.63
2023-02-19T07:14:53.080Z,47.71
2023-02-19T07:15:54.914Z,47.71
2023-02-19T07:16:56.953Z,47.62
2023-02-19T07:17:58.740Z,47.72
2023-02-19T07:19:00.585Z,47.77
2023-02-19T07:20:02.420Z,47.70
2023-02-19T07:21:04.225Z,47.62
2023-02-19T07:22:06.041Z,47.59
2023-02-19T07:23:07.869Z,47.58
2023-02-19T07:24:09.711Z,47.53
2023-02-19T07:25:11.573Z,47.57
2023-02-19T07:26:13.676Z,47.63
2023-02-19T07:27:15.505Z,47.62
2023-02-19T07:28:17.305Z,47.63
2023-02-19T07:29:19.100Z,47.57
2023-02-19T07:30:21.196Z,47.50
2023-02-19T07:31:23.008Z,47.36
2023-02-19T07:32:24.862Z,47.30
2023-02-19T07:33:26.658Z,47.16
2023-02-19T07:34:28.466Z,47.06
2023-02-19T07:35:30.336Z,46.93
2023-02-19T07:36:32.130Z,46.82
2023-02-19T07:37:33.963Z,46.91
2023-02-19T07:38:35.758Z,46.91
2023-02-19T07:39:37.602Z,46.98
2023-02-19T07:40:39.464Z,47.05
2023-02-19T07:41:41.270Z,47.08
2023-02-19T07:42:43.067Z,47.14
2023-02-19T07:43:44.899Z,47.14
2023-02-19T07:44:46.751Z,47.00
2023-02-19T07:45:48.651Z,47.02
2023-02-19T07:46:50.604Z,47.07
2023-02-19T07:47:52.418Z,46.92
2023-02-19T07:48:54.241Z,47.04
2023-02-19T07:49:56.052Z,47.13
2023-02-19T07:50:59.712Z,47.19
2023-02-19T07:52:01.523Z,47.19
2023-02-19T07:53:03.335Z,47.24
2023-02-19T07:54:05.149Z,47.32
2023-02-19T07:55:06.956Z,47.30
2023-02-19T07:56:09.003Z,47.34
2023-02-19T07:57:10.839Z,47.42
2023-02-19T07:58:12.730Z,47.27
2023-02-19T07:59:14.510Z,47.31
2023-02-19T08:00:16.559Z,47.38
2023-02-19T08:01:18.501Z,47.54
2023-02-19T08:02:20.340Z,47.45
2023-02-19T08:03:22.229Z,47.41
2023-02-19T08:04:24.068Z,47.57
2023-02-19T08:05:25.929Z,47.63
2023-02-19T08:06:27.892Z,47.61
2023-02-19T08:07:29.719Z,47.56
2023-02-19T08:08:31.539Z,47.50
2023-02-19T08:09:33.342Z,47.57
2023-02-19T08:10:35.377Z,47.51
2023-02-19T08:11:37.233Z,47.40
2023-02-19T08:12:39.046Z,47.19
2023-02-19T08:13:40.855Z,47.09
2023-02-19T08:14:42.663Z,47.33
2023-02-19T08:15:44.585Z,47.34
2023-02-19T08:16:46.455Z,47.02
2023-02-19T08:17:48.317Z,46.92
2023-02-19T08:18:50.190Z,46.86
2023-02-19T08:19:51.981Z,46.92
2023-02-19T08:20:53.810Z,46.91
2023-02-19T08:21:55.650Z,46.88
2023-02-19T08:22:57.457Z,46.94
2023-02-19T08:23:59.273Z,46.94
2023-02-19T08:25:01.160Z,46.87
2023-02-19T08:26:03.156Z,46.81
2023-02-19T08:27:05.000Z,46.74
2023-02-19T08:28:06.824Z,46.82
2023-02-19T08:29:08.670Z,46.80
2023-02-19T08:30:10.831Z,46.81
2023-02-19T08:31:12.960Z,46.87
2023-02-19T08:32:15.181Z,46.86
2023-02-19T08:33:17.059Z,46.74
2023-02-19T08:34:18.872Z,46.65
2023-02-19T08:35:20.683Z,46.81
2023-02-19T08:36:22.693Z,46.94
2023-02-19T08:37:24.635Z,46.87
2023-02-19T08:38:26.433Z,46.78
2023-02-19T08:39:28.253Z,46.73
2023-02-19T08:40:30.085Z,46.66
2023-02-19T08:41:31.911Z,46.42
2023-02-19T08:42:33.754Z,46.31
2023-02-19T08:43:35.576Z,46.39
2023-02-19T08:44:37.371Z,46.39
2023-02-19T08:45:39.192Z,46.41
2023-02-19T08:46:40.995Z,46.56
2023-02-19T08:47:42.848Z,46.47
2023-02-19T08:48:44.671Z,46.48
2023-02-19T08:49:46.466Z,46.33
2023-02-19T08:50:48.284Z,46.19
2023-02-19T08:51:50.098Z,46.12
2023-02-19T08:52:51.943Z,46.13
2023-02-19T08:53:53.959Z,46.12
2023-02-19T08:54:55.757Z,46.03
2023-02-19T08:55:57.710Z,46.05
2023-02-19T08:56:59.674Z,46.03
2023-02-19T08:58:01.736Z,45.98
2023-02-19T08:59:03.540Z,46.01
2023-02-19T09:00:05.997Z,46.07
2023-02-19T09:01:07.841Z,46.07
2023-02-19T09:02:09.685Z,46.05
2023-02-19T09:03:11.611Z,46.08
2023-02-19T09:04:13.456Z,46.08
2023-02-19T09:05:15.219Z,46.10
2023-02-19T09:06:18.833Z,46.08
2023-02-19T09:07:20.730Z,46.12
2023-02-19T09:08:22.624Z,46.10
2023-02-19T09:09:24.400Z,46.20
2023-02-19T09:10:26.199Z,46.26
2023-02-19T09:11:28.035Z,46.15
2023-02-19T09:12:29.848Z,46.05
2023-02-19T09:13:31.734Z,45.86
2023-02-19T09:14:33.528Z,45.92
2023-02-19T09:15:35.391Z,45.97
2023-02-19T09:16:37.263Z,46.06
2023-02-19T09:17:39.066Z,46.04
2023-02-19T09:18:40.913Z,45.97
2023-02-19T09:19:42.724Z,46.00
2023-02-19T09:20:44.637Z,45.91
2023-02-19T09:21:46.458Z,45.78
2023-02-19T09:22:48.266Z,45.80
2023-02-19T09:23:50.105Z,45.85
2023-02-19T09:24:51.940Z,45.88
2023-02-19T09:25:53.785Z,45.99
2023-02-19T09:26:55.597Z,45.99
2023-02-19T09:27:57.408Z,45.90
2023-02-19T09:28:59.264Z,45.91
2023-02-19T09:30:01.165Z,46.02
2023-02-19T09:31:02.976Z,46.04
2023-02-19T09:32:04.806Z,46.02
2023-02-19T09:33:06.684Z,45.83
2023-02-19T09:34:08.523Z,45.91
2023-02-19T09:35:10.348Z,45.95
2023-02-19T09:36:12.766Z,46.01
2023-02-19T09:37:14.576Z,46.11
2023-02-19T09:38:16.375Z,46.11
2023-02-19T09:39:18.229Z,46.14
2023-02-19T09:40:20.171Z,46.18
2023-02-19T09:41:21.984Z,46.32
2023-02-19T09:42:23.800Z,46.29
2023-02-19T09:43:25.627Z,46.25
2023-02-19T09:44:27.567Z,46.35
2023-02-19T09:45:29.391Z,46.44
2023-02-19T09:46:31.307Z,46.51
2023-02-19T09:47:33.201Z,53.99
2023-02-19T09:48:35.028Z,59.66
2023-02-19T09:49:36.968Z,61.65
2023-02-19T09:50:38.787Z,62.25
2023-02-19T09:51:40.576Z,62.28
2023-02-19T09:52:42.452Z,62.10
2023-02-19T09:53:44.289Z,61.47
2023-02-19T09:54:46.119Z,60.88
2023-02-19T09:55:47.924Z,60.15
2023-02-19T09:56:49.839Z,59.29
2023-02-19T09:57:51.643Z,58.81
2023-02-19T09:58:53.442Z,58.49
2023-02-19T09:59:55.347Z,57.95
2023-02-19T10:00:57.252Z,57.39
2023-02-19T10:01:59.071Z,56.70
2023-02-19T10:03:00.859Z,56.11
2023-02-19T10:04:02.668Z,55.60
2023-02-19T10:05:04.522Z,54.80
2023-02-19T10:06:08.210Z,54.38
2023-02-19T10:07:10.238Z,54.16
2023-02-19T10:08:12.045Z,53.84
2023-02-19T10:09:13.869Z,53.45
2023-02-19T10:10:16.017Z,53.10
2023-02-19T10:11:17.798Z,52.51
2023-02-19T10:12:19.609Z,52.05
2023-02-19T10:13:21.392Z,50.58
2023-02-19T10:14:23.205Z,51.32
2023-02-19T10:15:25.049Z,51.63
2023-02-19T10:16:26.946Z,51.37
2023-02-19T10:17:28.740Z,51.22
2023-02-19T10:18:30.552Z,50.35
2023-02-19T10:19:32.349Z,50.75
2023-02-19T10:20:34.383Z,50.73
2023-02-19T10:21:36.179Z,49.76
2023-02-19T10:22:38.024Z,49.29
2023-02-19T10:23:39.794Z,49.93
2023-02-19T10:24:41.586Z,50.29
2023-02-19T10:25:43.433Z,50.34
2023-02-19T10:26:45.332Z,50.00
2023-02-19T10:27:47.139Z,49.42
2023-02-19T10:28:48.948Z,49.16
2023-02-19T10:29:50.756Z,49.52
2023-02-19T10:30:52.755Z,49.46
2023-02-19T10:31:54.576Z,49.72
2023-02-19T10:32:56.398Z,49.74
2023-02-19T10:33:58.201Z,49.71
2023-02-19T10:34:59.988Z,49.05
2023-02-19T10:36:01.846Z,48.93
2023-02-19T10:37:03.647Z,48.94
2023-02-19T10:38:05.453Z,49.02
2023-02-19T10:39:07.240Z,49.08
2023-02-19T10:40:09.544Z,49.11
2023-02-19T10:41:11.857Z,49.11
2023-02-19T10:42:13.827Z,49.23
2023-02-19T10:43:15.699Z,49.05
2023-02-19T10:44:17.483Z,48.21
2023-02-19T10:45:19.305Z,47.34
2023-02-19T10:46:21.400Z,48.18
2023-02-19T10:47:23.176Z,48.65
2023-02-19T10:48:24.984Z,48.70
2023-02-19T10:49:26.793Z,48.90
2023-02-19T10:50:28.756Z,48.68
2023-02-19T10:51:30.686Z,48.69
2023-02-19T10:52:32.505Z,49.28
2023-02-19T10:53:34.344Z,49.47
2023-02-19T10:54:36.258Z,50.26
2023-02-19T10:55:38.257Z,51.16
2023-02-19T10:56:40.231Z,52.09
2023-02-19T10:57:42.030Z,52.44
2023-02-19T10:58:43.845Z,53.00
2023-02-19T10:59:45.671Z,53.27
2023-02-19T11:00:47.489Z,53.42
2023-02-19T11:01:50.168Z,53.88
2023-02-19T11:02:51.976Z,54.51
2023-02-19T11:03:53.805Z,55.18
2023-02-19T11:04:55.574Z,55.59
2023-02-19T11:05:57.370Z,55.59
2023-02-19T11:06:59.213Z,55.54
2023-02-19T11:08:01.065Z,55.74
2023-02-19T11:09:02.888Z,55.77
2023-02-19T11:10:05.016Z,53.95
2023-02-19T11:11:06.834Z,46.76
2023-02-19T11:12:09.705Z,42.51
2023-02-19T11:13:11.624Z,40.35
2023-02-19T11:14:13.451Z,39.03
2023-02-19T11:15:15.280Z,38.19
2023-02-19T11:16:19.004Z,37.66
2023-02-19T11:17:20.957Z,37.29
2023-02-19T11:18:22.766Z,37.24
2023-02-19T11:19:24.574Z,37.02
2023-02-19T11:20:26.572Z,36.89
2023-02-19T11:21:28.389Z,36.74
2023-02-19T11:22:30.224Z,36.87
2023-02-19T11:23:32.067Z,36.92
2023-02-19T11:24:33.905Z,36.99
2023-02-19T11:25:35.687Z,37.16
2023-02-19T11:26:37.592Z,37.33
2023-02-19T11:27:39.701Z,37.41
2023-02-19T11:28:41.510Z,37.33
2023-02-19T11:29:43.329Z,37.45
2023-02-19T11:30:45.166Z,37.35
2023-02-19T11:31:47.076Z,37.53
2023-02-19T11:32:49.038Z,37.91
2023-02-19T11:33:50.860Z,37.93
2023-02-19T11:34:52.664Z,37.73
2023-02-19T11:35:54.485Z,37.31
2023-02-19T11:36:56.283Z,37.25
2023-02-19T11:37:58.147Z,37.37
2023-02-19T11:38:59.980Z,37.46
2023-02-19T11:40:01.774Z,37.62
2023-02-19T11:41:03.585Z,37.90
2023-02-19T11:42:05.400Z,38.15
2023-02-19T11:43:07.275Z,38.26
2023-02-19T11:44:09.091Z,38.35
2023-02-19T11:45:10.895Z,38.45
2023-02-19T11:46:14.459Z,38.39
2023-02-19T11:47:16.240Z,38.17
2023-02-19T11:48:18.100Z,37.79
2023-02-19T11:49:19.921Z,38.00
2023-02-19T11:50:21.900Z,38.14
2023-02-19T11:51:23.726Z,38.10
2023-02-19T11:52:25.533Z,37.42
2023-02-19T11:53:27.408Z,37.35
2023-02-19T11:54:29.195Z,37.68
2023-02-19T11:55:31.009Z,38.13
2023-02-19T11:56:33.048Z,38.37
2023-02-19T11:57:34.857Z,38.42
2023-02-19T11:58:36.738Z,38.52
2023-02-19T11:59:38.547Z,38.22
2023-02-19T12:00:40.472Z,38.36
2023-02-19T12:01:42.304Z,38.43
2023-02-19T12:02:44.088Z,38.40
2023-02-19T12:03:46.007Z,38.38
2023-02-19T12:04:47.846Z,38.30
2023-02-19T12:05:49.652Z,38.42
2023-02-19T12:06:51.451Z,38.67
2023-02-19T12:07:53.279Z,38.73
2023-02-19T12:08:55.111Z,38.71
2023-02-19T12:09:56.929Z,38.89
2023-02-19T12:10:58.920Z,38.97
2023-02-19T12:12:00.737Z,38.92
2023-02-19T12:13:02.570Z,38.94
2023-02-19T12:14:04.443Z,39.04
2023-02-19T12:15:06.234Z,38.85
2023-02-19T12:16:08.615Z,38.73
2023-02-19T12:17:10.374Z,38.43
2023-02-19T12:18:12.184Z,38.60
2023-02-19T12:19:14.042Z,38.61
2023-02-19T12:20:15.950Z,38.60
2023-02-19T12:21:17.759Z,38.42
2023-02-19T12:22:19.555Z,38.30
2023-02-19T12:23:21.365Z,38.29
2023-02-19T12:24:23.229Z,38.35
2023-02-19T12:25:25.062Z,38.63
2023-02-19T12:26:26.867Z,38.67
2023-02-19T12:27:28.679Z,38.75
2023-02-19T12:28:31.515Z,38.78
2023-02-19T12:29:33.468Z,38.82
2023-02-19T12:30:35.531Z,38.75
2023-02-19T12:31:37.397Z,38.66
2023-02-19T12:32:39.182Z,38.59
2023-02-19T12:33:40.984Z,38.64
2023-02-19T12:34:42.897Z,38.81
2023-02-19T12:35:44.688Z,38.68
2023-02-19T12:36:46.643Z,38.55
2023-02-19T12:37:48.466Z,38.37
2023-02-19T12:38:50.291Z,38.49
2023-02-19T12:39:52.166Z,38.44
2023-02-19T12:40:54.104Z,38.54
2023-02-19T12:41:55.956Z,38.66
2023-02-19T12:42:57.782Z,38.72
2023-02-19T12:43:59.586Z,38.94
2023-02-19T12:45:01.450Z,39.01
2023-02-19T12:46:03.569Z,39.01
2023-02-19T12:47:05.405Z,39.15
2023-02-19T12:48:07.242Z,39.15
2023-02-19T12:49:09.045Z,38.72
2023-02-19T12:50:11.421Z,38.90
2023-02-19T12:51:13.214Z,38.81
2023-02-19T12:52:15.038Z,38.79
2023-02-19T12:53:16.866Z,38.98
2023-02-19T12:54:18.674Z,39.08
2023-02-19T12:55:20.530Z,39.15
2023-02-19T12:56:22.541Z,39.42
2023-02-19T12:57:24.373Z,39.57
2023-02-19T12:58:26.271Z,39.75
2023-02-19T12:59:28.077Z,39.71
2023-02-19T13:00:29.983Z,39.76
2023-02-19T13:01:31.829Z,39.83
2023-02-19T13:02:33.795Z,39.90
2023-02-19T13:03:35.622Z,39.84
2023-02-19T13:04:37.449Z,39.90
2023-02-19T13:05:39.328Z,39.99
2023-02-19T13:06:41.150Z,39.94
2023-02-19T13:07:42.960Z,39.88
2023-02-19T13:08:57.847Z,40.06
2023-02-19T13:09:48.421Z,40.25
2023-02-19T13:10:52.945Z,40.41
2023-02-19T13:11:54.836Z,40.28
2023-02-19T13:12:56.689Z,40.24
2023-02-19T13:13:58.531Z,40.30
2023-02-19T13:15:00.354Z,40.30
2023-02-19T13:16:02.271Z,40.26
2023-02-19T13:17:04.152Z,40.18
2023-02-19T13:18:06.023Z,40.04
2023-02-19T13:19:07.840Z,39.79
2023-02-19T13:20:09.893Z,39.79
2023-02-19T13:21:12.027Z,40.11
2023-02-19T13:22:14.142Z,39.95
2023-02-19T13:23:15.951Z,39.86
2023-02-19T13:24:17.755Z,39.80
2023-02-19T13:25:19.619Z,39.88
2023-02-19T13:26:22.094Z,39.88
2023-02-19T13:27:23.913Z,39.74
2023-02-19T13:28:25.738Z,39.68
2023-02-19T13:29:27.540Z,39.75
2023-02-19T13:30:29.424Z,39.85
2023-02-19T13:31:31.424Z,39.84
2023-02-19T13:32:33.314Z,39.94
2023-02-19T13:33:35.260Z,40.02
2023-02-19T13:34:37.065Z,40.01
2023-02-19T13:35:38.865Z,40.07
2023-02-19T13:36:40.827Z,40.13
2023-02-19T13:37:42.638Z,40.25
2023-02-19T13:38:44.457Z,40.28
2023-02-19T13:39:46.280Z,40.43
2023-02-19T13:40:48.174Z,40.54
2023-02-19T13:41:50.048Z,40.73
2023-02-19T13:42:51.852Z,41.04
2023-02-19T13:43:53.650Z,41.03
2023-02-19T13:44:57.945Z,41.06
2023-02-19T13:45:59.170Z,41.02
2023-02-19T13:47:01.790Z,40.94
2023-02-19T13:48:03.586Z,40.95
2023-02-19T13:49:05.395Z,41.10
2023-02-19T13:50:07.554Z,41.01
2023-02-19T13:51:10.128Z,41.18
2023-02-19T13:52:12.211Z,40.91
2023-02-19T13:53:14.024Z,41.08
2023-02-19T13:54:15.841Z,41.26
2023-02-19T13:55:17.650Z,41.31
2023-02-19T13:56:20.374Z,41.05
2023-02-19T13:57:22.314Z,41.03
2023-02-19T13:58:24.133Z,41.13
2023-02-19T13:59:25.964Z,41.13
2023-02-19T14:00:27.785Z,40.84
2023-02-19T14:01:29.638Z,41.05
2023-02-19T14:02:31.503Z,41.04
2023-02-19T14:03:33.280Z,41.14
2023-02-19T14:04:37.698Z,41.27
2023-02-19T14:05:39.567Z,41.24
2023-02-19T14:06:41.364Z,41.36
2023-02-19T14:07:43.221Z,41.39
2023-02-19T14:08:45.070Z,41.33
2023-02-19T14:09:46.879Z,41.47
2023-02-19T14:10:48.688Z,41.47
2023-02-19T14:11:50.542Z,41.42
2023-02-19T14:12:52.404Z,41.51
2023-02-19T14:13:54.209Z,41.54
2023-02-19T14:14:56.049Z,41.54
2023-02-19T14:15:57.947Z,41.52
2023-02-19T14:17:00.101Z,41.54
2023-02-19T14:18:01.959Z,41.61
2023-02-19T14:19:03.774Z,41.71
2023-02-19T14:20:05.738Z,41.67
2023-02-19T14:21:07.503Z,41.78
2023-02-19T14:22:09.296Z,41.75
2023-02-19T14:23:11.188Z,41.82
2023-02-19T14:24:13.039Z,42.06
2023-02-19T14:25:14.840Z,42.12
2023-02-19T14:26:17.151Z,42.09
2023-02-19T14:27:18.966Z,42.02
2023-02-19T14:28:20.839Z,42.02
2023-02-19T14:29:22.630Z,42.15
2023-02-19T14:30:24.677Z,42.40
2023-02-19T14:31:26.576Z,42.43
2023-02-19T14:32:28.455Z,42.38
2023-02-19T14:33:30.319Z,42.46
2023-02-19T14:34:32.117Z,42.53
2023-02-19T14:35:33.912Z,42.54
2023-02-19T14:36:35.738Z,42.62
2023-02-19T14:37:37.544Z,42.75
2023-02-19T14:38:39.441Z,42.71
2023-02-19T14:39:41.227Z,42.69
2023-02-19T14:40:43.254Z,42.53
2023-02-19T14:41:45.053Z,42.40
2023-02-19T14:42:46.853Z,42.66
2023-02-19T14:43:48.694Z,42.69
2023-02-19T14:44:50.503Z,42.73
2023-02-19T14:45:52.304Z,42.76
2023-02-19T14:46:54.134Z,42.85
2023-02-19T14:47:55.936Z,42.74
2023-02-19T14:48:57.786Z,42.69
2023-02-19T14:49:59.682Z,42.64
2023-02-19T14:51:01.965Z,42.64
2023-02-19T14:52:03.785Z,42.64
2023-02-19T14:53:05.653Z,42.70
2023-02-19T14:54:07.499Z,42.74
2023-02-19T14:55:09.312Z,42.90
2023-02-19T14:56:11.632Z,42.90
2023-02-19T14:57:13.444Z,42.93
2023-02-19T14:58:15.242Z,42.91
2023-02-19T14:59:17.127Z,43.00
2023-02-19T15:00:20.029Z,43.08
2023-02-19T15:01:21.852Z,43.13
2023-02-19T15:02:23.636Z,43.10
2023-02-19T15:03:25.455Z,43.08
2023-02-19T15:04:27.569Z,42.94
2023-02-19T15:05:29.339Z,42.84
2023-02-19T15:06:31.354Z,42.86
2023-02-19T15:07:33.216Z,42.83
2023-02-19T15:08:35.642Z,42.78
2023-02-19T15:09:37.483Z,42.81
2023-02-19T15:10:39.301Z,42.76
2023-02-19T15:11:41.089Z,42.83
2023-02-19T15:12:42.946Z,42.95
2023-02-19T15:13:44.724Z,43.06
2023-02-19T15:14:46.579Z,43.20
2023-02-19T15:15:48.403Z,43.10
2023-02-19T15:16:50.331Z,43.10
2023-02-19T15:17:52.146Z,43.10
2023-02-19T15:18:53.943Z,43.07
2023-02-19T15:19:55.810Z,43.02
2023-02-19T15:20:57.818Z,42.94
2023-02-19T15:21:59.676Z,42.92
2023-02-19T15:23:01.512Z,42.89
2023-02-19T15:24:03.328Z,42.89
2023-02-19T15:25:05.184Z,42.82
2023-02-19T15:26:07.069Z,42.82
2023-02-19T15:27:08.881Z,42.83
2023-02-19T15:28:10.696Z,42.87
2023-02-19T15:29:12.520Z,42.82
2023-02-19T15:30:14.898Z,42.87
2023-02-19T15:31:16.917Z,42.89
2023-02-19T15:32:18.726Z,42.88
2023-02-19T15:33:20.490Z,42.85
2023-02-19T15:34:22.303Z,42.79
2023-02-19T15:35:24.163Z,42.80
2023-02-19T15:36:25.978Z,42.78
2023-02-19T15:37:27.786Z,42.79
2023-02-19T15:38:29.570Z,42.78
2023-02-19T15:39:31.580Z,42.81
2023-02-19T15:40:33.438Z,42.81
2023-02-19T15:41:35.257Z,42.82
2023-02-19T15:42:37.058Z,42.85
2023-02-19T15:43:38.868Z,42.90
2023-02-19T15:44:40.692Z,42.96
2023-02-19T15:45:42.529Z,42.96
2023-02-19T15:46:44.591Z,43.01
2023-02-19T15:47:46.486Z,42.99
2023-02-19T15:48:48.282Z,42.97
2023-02-19T15:49:50.082Z,42.98
2023-02-19T15:50:51.942Z,42.98
2023-02-19T15:51:53.798Z,43.01
2023-02-19T15:52:55.890Z,43.04
2023-02-19T15:53:58.509Z,43.04
2023-02-19T15:55:00.356Z,43.07
2023-02-19T15:56:02.219Z,43.10
2023-02-19T15:57:04.433Z,43.09
2023-02-19T15:58:06.235Z,43.12
2023-02-19T15:59:08.073Z,43.12
2023-02-19T16:00:10.106Z,43.15
2023-02-19T16:01:12.158Z,43.21
2023-02-19T16:02:14.176Z,43.28
2023-02-19T16:03:15.991Z,43.30
2023-02-19T16:04:17.786Z,43.34
2023-02-19T16:05:19.618Z,43.39
2023-02-19T16:06:21.794Z,43.40
2023-02-19T16:07:23.605Z,43.40
2023-02-19T16:08:25.404Z,43.44
2023-02-19T16:09:27.321Z,43.49
2023-02-19T16:10:29.111Z,43.52
2023-02-19T16:11:30.960Z,43.58
2023-02-19T16:12:32.795Z,43.64
2023-02-19T16:13:34.581Z,43.66
2023-02-19T16:14:36.420Z,43.64
2023-02-19T16:15:38.222Z,43.63
2023-02-19T16:16:40.298Z,43.62
2023-02-19T16:17:42.127Z,43.66
2023-02-19T16:18:43.927Z,43.69
2023-02-19T16:19:45.742Z,43.67
2023-02-19T16:20:47.648Z,43.67
2023-02-19T16:21:49.525Z,43.69
2023-02-19T16:22:51.336Z,43.68
2023-02-19T16:23:53.170Z,43.69
2023-02-19T16:24:54.978Z,43.72
2023-02-19T16:25:56.817Z,43.72
2023-02-19T16:26:58.760Z,43.76
2023-02-19T16:28:00.576Z,43.80
2023-02-19T16:29:02.381Z,43.80
2023-02-19T16:30:04.201Z,43.85
2023-02-19T16:31:06.049Z,43.95
2023-02-19T16:32:08.031Z,43.89
2023-02-19T16:33:09.903Z,43.91
2023-02-19T16:34:11.707Z,43.94
2023-02-19T16:35:13.506Z,44.03
2023-02-19T16:36:17.121Z,44.06
2023-02-19T16:37:18.963Z,44.07
2023-02-19T16:38:20.772Z,44.12
2023-02-19T16:39:22.597Z,44.14
2023-02-19T16:40:24.593Z,44.14
2023-02-19T16:41:26.420Z,44.14
2023-02-19T16:42:28.285Z,44.15
2023-02-19T16:43:30.093Z,44.17
2023-02-19T16:44:31.920Z,44.16
2023-02-19T16:45:33.736Z,44.15
2023-02-19T16:46:35.557Z,44.12
2023-02-19T16:47:37.424Z,44.13
2023-02-19T16:48:39.266Z,44.10
2023-02-19T16:49:41.083Z,44.07
2023-02-19T16:50:43.018Z,44.08
2023-02-19T16:51:44.867Z,44.07
2023-02-19T16:52:46.783Z,44.08
2023-02-19T16:53:48.609Z,44.06
2023-02-19T16:54:50.401Z,44.07
2023-02-19T16:55:52.216Z,44.02
2023-02-19T16:56:54.043Z,43.97
2023-02-19T16:57:55.927Z,43.94
2023-02-19T16:58:57.742Z,43.94
2023-02-19T16:59:59.535Z,43.92
2023-02-19T17:01:01.410Z,43.95
2023-02-19T17:02:03.185Z,43.98
2023-02-19T17:03:08.167Z,43.93
2023-02-19T17:04:10.058Z,43.92
2023-02-19T17:05:11.914Z,43.88
2023-02-19T17:06:13.914Z,43.84
2023-02-19T17:07:15.729Z,43.82
2023-02-19T17:08:17.607Z,43.77
2023-02-19T17:09:19.428Z,43.75
2023-02-19T17:10:21.244Z,43.70
2023-02-19T17:11:23.044Z,43.67
2023-02-19T17:12:24.848Z,43.67
2023-02-19T17:13:26.710Z,43.68
2023-02-19T17:14:28.543Z,43.66
2023-02-19T17:15:32.658Z,43.67
2023-02-19T17:16:34.539Z,43.74
2023-02-19T17:17:36.350Z,43.78
2023-02-19T17:18:38.208Z,43.83
2023-02-19T17:19:40.013Z,43.83
2023-02-19T17:20:41.816Z,43.81
2023-02-19T17:21:43.624Z,43.85
2023-02-19T17:22:45.461Z,43.93
2023-02-19T17:23:47.312Z,43.86
2023-02-19T17:24:49.119Z,43.78
2023-02-19T17:25:50.966Z,43.75
2023-02-19T17:26:52.840Z,43.71
2023-02-19T17:27:54.668Z,43.71
2023-02-19T17:28:56.536Z,43.66
2023-02-19T17:29:58.349Z,43.70
2023-02-19T17:31:00.255Z,43.69
2023-02-19T17:32:02.169Z,43.68
2023-02-19T17:33:03.998Z,43.73
2023-02-19T17:34:05.858Z,43.70
2023-02-19T17:35:07.716Z,43.77
2023-02-19T17:36:09.726Z,43.78
2023-02-19T17:37:11.705Z,43.74
2023-02-19T17:38:13.521Z,43.76
2023-02-19T17:39:15.392Z,43.87
2023-02-19T17:40:30.666Z,43.90
2023-02-19T17:41:21.040Z,43.93
2023-02-19T17:42:22.849Z,43.94
2023-02-19T17:43:25.505Z,43.91
2023-02-19T17:44:27.458Z,44.00
2023-02-19T17:45:29.267Z,44.13
2023-02-19T17:46:31.333Z,44.20
2023-02-19T17:47:33.170Z,44.18
2023-02-19T17:48:34.982Z,44.19
2023-02-19T17:49:36.851Z,44.25
2023-02-19T17:50:39.833Z,44.34
2023-02-19T17:51:41.646Z,44.36
2023-02-19T17:52:43.443Z,44.39
2023-02-19T17:53:45.349Z,44.37
2023-02-19T17:54:47.213Z,44.40
2023-02-19T17:55:49.030Z,44.39
2023-02-19T17:56:50.817Z,44.49
2023-02-19T17:57:52.652Z,44.52
2023-02-19T17:58:54.490Z,44.40
2023-02-19T17:59:56.354Z,44.40
2023-02-19T18:00:58.205Z,44.45
2023-02-19T18:01:59.999Z,44.49
2023-02-19T18:03:01.893Z,44.56
2023-02-19T18:04:03.720Z,44.51
2023-02-19T18:05:05.747Z,44.50
2023-02-19T18:06:08.980Z,44.61
2023-02-19T18:07:10.809Z,44.70
2023-02-19T18:08:12.643Z,44.68
2023-02-19T18:09:14.447Z,44.65
2023-02-19T18:10:16.810Z,44.66
2023-02-19T18:11:18.752Z,44.69
2023-02-19T18:12:20.574Z,44.76
2023-02-19T18:13:22.407Z,44.76
2023-02-19T18:14:24.231Z,44.68
2023-02-19T18:15:26.132Z,44.62
2023-02-19T18:16:28.215Z,44.55
2023-02-19T18:17:30.102Z,44.56
2023-02-19T18:18:31.931Z,44.54
2023-02-19T18:19:33.737Z,44.52
2023-02-19T18:20:35.619Z,44.42
2023-02-19T18:21:37.436Z,44.38
2023-02-19T18:22:39.244Z,44.36
2023-02-19T18:23:41.289Z,44.32
2023-02-19T18:24:43.409Z,44.31
2023-02-19T18:25:45.261Z,44.30
2023-02-19T18:26:47.163Z,44.29
2023-02-19T18:27:49.083Z,44.28
2023-02-19T18:28:50.933Z,44.25
2023-02-19T18:29:52.733Z,44.21
2023-02-19T18:30:54.708Z,44.17
2023-02-19T18:31:56.724Z,44.17
2023-02-19T18:32:58.617Z,44.15
2023-02-19T18:34:01.577Z,44.13
2023-02-19T18:35:03.409Z,44.11
2023-02-19T18:36:05.353Z,44.11
2023-02-19T18:37:07.168Z,44.13
2023-02-19T18:38:09.029Z,44.14
2023-02-19T18:39:11.027Z,44.07
2023-02-19T18:40:13.346Z,44.10
2023-02-19T18:41:17.021Z,44.10
2023-02-19T18:42:18.999Z,44.09
2023-02-19T18:43:21.019Z,44.11
2023-02-19T18:44:22.820Z,44.14
2023-02-19T18:45:24.677Z,44.14
2023-02-19T18:46:26.565Z,44.16
2023-02-19T18:47:28.414Z,44.18
2023-02-19T18:48:30.215Z,44.19
2023-02-19T18:49:32.031Z,44.17
2023-02-19T18:50:33.859Z,44.18
2023-02-19T18:51:35.732Z,44.16
2023-02-19T18:52:37.536Z,44.13
2023-02-19T18:53:39.353Z,44.16
2023-02-19T18:54:41.170Z,44.17
2023-02-19T18:55:43.125Z,44.15
2023-02-19T18:56:45.116Z,44.15
2023-02-19T18:57:46.937Z,44.19
2023-02-19T18:58:50.366Z,44.17
2023-02-19T18:59:52.462Z,44.19
2023-02-19T19:00:54.430Z,44.22
2023-02-19T19:01:56.296Z,44.22
2023-02-19T19:02:58.130Z,44.22